Flugplatz Schwandorf

Für EDPF sind keine METAR/TAF Berichte vorhanden.
Es werden die Flugwettermeldungen vom Flugplatz Hohenfels Army Air Field in 28 km Entfernung angezeigt.

Bericht für ETIH

vom 25.01. um 22:21 UTC

kein Wind

Sichtweite 2000 m

feuchter Dunst

aufgebrochene Bewölkung in 100 ft

bedeckt in 1200 ft

Temperatur -1.0°C

Taupunkt -2.0°C

Luftfeuchtigkeit 93%

Luftdruck 1021 hPa

ETIH 252221Z AUTO 00000KT 2000 BR BKN001 OVC012 M01/M02 A3015 RMK AO2 VIS 1000V2000 SLP241 $
Keine Prognose (TAF) verfügbar.
Impressum